Time;durP1;ratioP1;P1;durP2;ratioP2;P2;SDS_P1;SDS_P2;PMS_P1;PMS_P2;Temp;Humidity;BMP_temperature;BMP_pressure;BME280_temperature;BME280_humidity;BME280_pressure;Samples;Min_cycle;Max_cycle;Signal;HPM_P1;HPM_P2
2022/06/05 00:02:09;;;;;;;;;;;;;;;;;;5081720;28;19919;-42
2022/06/05 00:04:34;;;;;;;;;;;;;;;;;;5081695;28;19908;-43
2022/06/05 00:07:02;;;;;;;;;;;;;;;;;;5081753;28;19908;-43
2022/06/05 00:09:27;;;;;;;;;;;;;;;;;;5081905;28;20220;-43
2022/06/05 00:11:52;;;;;;;;;;;;;;;;;;5081393;28;19905;-43
2022/06/05 00:14:19;;;;;;;;;;;;;;;;;;5081332;28;19915;-43
2022/06/05 00:16:44;;;;;;;;;;;;;;;;;;5081299;28;19935;-45
2022/06/05 00:19:10;;;;;;;;;;;;;;;;;;5080821;28;19909;-46
2022/06/05 00:21:35;;;;;;;;;;;;;;;;;;5080732;28;19912;-45
2022/06/05 00:24:00;;;;;;;;;;;;;;;;;;5080732;28;19908;-46
2022/06/05 00:26:25;;;;;;;;;;;;;;;;;;5080743;28;19908;-44
2022/06/05 00:28:50;;;;;;;;;;;;;;;;;;5080567;28;20329;-44
2022/06/05 00:31:15;;;;;;;;;;;;;;;;;;5080629;28;20270;-45
2022/06/05 00:33:44;;;;;;;;;;;;;;;;;;5080695;28;20343;-44
2022/06/05 00:36:09;;;;;;;;;;;;;;;;;;5080558;28;20390;-43
2022/06/05 00:38:36;;;;;;;;;;;;;;;;;;5080495;28;19909;-43
2022/06/05 00:41:02;;;;;;;;;;;;;;;;;;5080329;28;20363;-44
2022/06/05 00:43:27;;;;;;;;;;;;;;;;;;5080392;28;19916;-44
2022/06/05 00:45:53;;;;;;;;;;;;;;;;;;5080799;28;19908;-44
2022/06/05 00:48:19;;;;;;;;;;;;;;;;;;5080610;28;19947;-44
2022/06/05 00:50:44;;;;;;;;;;;;;;;;;;5080430;28;20007;-44
2022/06/05 00:53:12;;;;;;;;;;;;;;;;;;5080510;28;19961;-43
2022/06/05 00:55:37;;;;;;;;;;;;;;;;;;5076278;28;19908;-45
2022/06/05 00:58:03;;;;;;;;;;;;;;;;;;5077182;28;19912;-44
2022/06/05 01:00:28;;;;;;;;;;;;;;;;;;5077135;28;20416;-44
2022/06/05 01:02:53;;;;;;;;;;;;;;;;;;5077136;28;19994;-43
2022/06/05 01:05:21;;;;;;;;;;;;;;;;;;5077230;28;19961;-45
2022/06/05 01:07:46;;;;;;;;;;;;;;;;;;5077087;28;19959;-43
2022/06/05 01:10:11;;;;;;;;;;;;;;;;;;5076953;28;19905;-43
2022/06/05 01:12:37;;;;;;;;;;;;;;;;;;5077021;28;19912;-43
2022/06/05 01:15:05;;;;;;;;;;;;;;;;;;5076856;28;19916;-44
2022/06/05 01:17:34;;;;;;;;;;;;;;;;;;5076806;28;19912;-43
2022/06/05 01:20:01;;;;;;;;;;;;;;;;;;5076805;28;19913;-43
2022/06/05 01:22:26;;;;;;;;;;;;;;;;;;5076725;28;19908;-44
2022/06/05 01:24:53;;;;;;;;;;;;;;;;;;5076802;28;19912;-43
2022/06/05 01:27:18;;;;;;;;;;;;;;;;;;5076689;28;19908;-44
2022/06/05 01:29:44;;;;;;;;;;;;;;;;;;5076649;28;20298;-43
2022/06/05 01:32:09;;;;;;;;;;;;;;;;;;5076610;28;19951;-43
2022/06/05 01:34:35;;;;;;;;;;;;;;;;;;5076435;28;19991;-44
2022/06/05 01:37:02;;;;;;;;;;;;;;;;;;5076617;28;19916;-43
2022/06/05 01:39:30;;;;;;;;;;;;;;;;;;5076233;28;19913;-43
2022/06/05 01:41:56;;;;;;;;;;;;;;;;;;5076273;28;19908;-43
2022/06/05 01:44:21;;;;;;;;;;;;;;;;;;5076601;28;19995;-43
2022/06/05 01:46:46;;;;;;;;;;;;;;;;;;5076483;28;19913;-43
2022/06/05 01:49:14;;;;;;;;;;;;;;;;;;5076451;28;20388;-43
2022/06/05 01:51:40;;;;;;;;;;;;;;;;;;5076234;28;20330;-42
2022/06/05 01:54:05;;;;;;;;;;;;;;;;;;5076200;28;19978;-43
2022/06/05 01:56:31;;;;;;;;;;;;;;;;;;5076327;28;19908;-43
2022/06/05 01:58:56;;;;;;;;;;;;;;;;;;5076260;28;19954;-43
2022/06/05 02:01:22;;;;;;;;;;;;;;;;;;5076158;28;19912;-43
2022/06/05 02:03:47;;;;;;;;;;;;;;;;;;5076002;28;19909;-44
2022/06/05 02:06:12;;;;;;;;;;;;;;;;;;5075925;28;19912;-42
2022/06/05 02:08:37;;;;;;;;;;;;;;;;;;5075974;28;19908;-43
2022/06/05 02:11:05;;;;;;;;;;;;;;;;;;5075886;28;19908;-43
2022/06/05 02:13:30;;;;;;;;;;;;;;;;;;5076087;28;19908;-43
2022/06/05 02:15:57;;;;;;;;;;;;;;;;;;5075973;28;19915;-44
2022/06/05 02:18:23;;;;;;;;;;;;;;;;;;5075969;28;19915;-43
2022/06/05 02:20:48;;;;;;;;;;;;;;;;;;5075731;28;19999;-43
2022/06/05 02:23:13;;;;;;;;;;;;;;;;;;5076437;28;20045;-43
2022/06/05 02:25:41;;;;;;;;;;;;;;;;;;5075734;28;19999;-43
2022/06/05 02:28:07;;;;;;;;;;;;;;;;;;5075717;28;19909;-42
2022/06/05 02:30:32;;;;;;;;;;;;;;;;;;5075770;28;19916;-43
2022/06/05 02:32:58;;;;;;;;;;;;;;;;;;5075582;28;19904;-43
2022/06/05 02:35:23;;;;;;;;;;;;;;;;;;5075562;28;19909;-44
2022/06/05 02:37:51;;;;;;;;;;;;;;;;;;5075459;28;19920;-43
2022/06/05 02:40:16;;;;;;;;;;;;;;;;;;5075226;28;20333;-43
2022/06/05 02:42:41;;;;;;;;;;;;;;;;;;5075673;28;20030;-44
2022/06/05 02:45:06;;;;;;;;;;;;;;;;;;5075447;28;19916;-44
2022/06/05 02:47:34;;;;;;;;;;;;;;;;;;5075269;28;19912;-43
2022/06/05 02:49:59;;;;;;;;;;;;;;;;;;5074047;28;19962;-43
2022/06/05 02:52:25;;;;;;;;;;;;;;;;;;5075219;28;19913;-43
2022/06/05 02:54:50;;;;;;;;;;;;;;;;;;5075207;28;19909;-43
2022/06/05 02:57:15;;;;;;;;;;;;;;;;;;5075066;28;19915;-43
2022/06/05 02:59:43;;;;;;;;;;;;;;;;;;5074949;28;19934;-42
2022/06/05 03:04:55;;;;;;;;;;;;;;;;;;5074924;28;19963;-43
2022/06/05 03:07:20;;;;;;;;;;;;;;;;;;5075046;28;19909;-42
2022/06/05 03:09:45;;;;;;;;;;;;;;;;;;5074882;28;20388;-43
2022/06/05 03:12:11;;;;;;;;;;;;;;;;;;5074882;28;20329;-43
2022/06/05 03:14:37;;;;;;;;;;;;;;;;;;5074930;28;19909;-43
2022/06/05 03:17:02;;;;;;;;;;;;;;;;;;5071504;28;20381;-43
2022/06/05 03:19:28;;;;;;;;;;;;;;;;;;5070994;28;19919;-44
2022/06/05 03:21:53;;;;;;;;;;;;;;;;;;5074977;28;19978;-43
2022/06/05 03:24:21;;;;;;;;;;;;;;;;;;5074723;28;19908;-43
2022/06/05 03:26:46;;;;;;;;;;;;;;;;;;5074589;28;19909;-43
2022/06/05 03:29:12;;;;;;;;;;;;;;;;;;5074648;28;19966;-44
2022/06/05 03:31:38;;;;;;;;;;;;;;;;;;5075066;28;19933;-43
2022/06/05 03:34:03;;;;;;;;;;;;;;;;;;5074709;28;19912;-43
2022/06/05 03:36:28;;;;;;;;;;;;;;;;;;5074539;28;19909;-44
2022/06/05 03:38:53;;;;;;;;;;;;;;;;;;5074656;28;19993;-43
2022/06/05 03:41:21;;;;;;;;;;;;;;;;;;5074252;28;19921;-43
2022/06/05 03:43:47;;;;;;;;;;;;;;;;;;5074401;28;20293;-44
2022/06/05 03:46:15;;;;;;;;;;;;;;;;;;5074698;28;19919;-43
2022/06/05 03:48:40;;;;;;;;;;;;;;;;;;5074699;28;19974;-43
2022/06/05 03:51:07;;;;;;;;;;;;;;;;;;5074513;28;19927;-44
2022/06/05 03:53:33;;;;;;;;;;;;;;;;;;5074635;28;19912;-44
2022/06/05 03:55:58;;;;;;;;;;;;;;;;;;5074446;28;19940;-43
2022/06/05 03:58:25;;;;;;;;;;;;;;;;;;5074475;28;20360;-43
2022/06/05 04:00:50;;;;;;;;;;;;;;;;;;5074305;28;19912;-43
2022/06/05 04:03:16;;;;;;;;;;;;;;;;;;5074335;28;19962;-43
2022/06/05 04:05:44;;;;;;;;;;;;;;;;;;5074318;28;19920;-43
2022/06/05 04:08:14;;;;;;;;;;;;;;;;;;5074408;28;19908;-43
2022/06/05 04:10:42;;;;;;;;;;;;;;;;;;5073103;28;19915;-44
2022/06/05 04:13:08;;;;;;;;;;;;;;;;;;5074124;28;19909;-43
2022/06/05 04:15:34;;;;;;;;;;;;;;;;;;5074295;28;19916;-42
2022/06/05 04:18:00;;;;;;;;;;;;;;;;;;5074220;28;20271;-44
2022/06/05 04:20:25;;;;;;;;;;;;;;;;;;5074036;28;19919;-43
2022/06/05 04:22:50;;;;;;;;;;;;;;;;;;5074197;28;19908;-44
2022/06/05 04:25:15;;;;;;;;;;;;;;;;;;5074212;28;19909;-44
2022/06/05 04:27:41;;;;;;;;;;;;;;;;;;5074034;28;19997;-43
2022/06/05 04:30:06;;;;;;;;;;;;;;;;;;5076171;28;19908;-44
2022/06/05 04:32:34;;;;;;;;;;;;;;;;;;5077737;28;19995;-43
2022/06/05 04:34:59;;;;;;;;;;;;;;;;;;5076489;28;20316;-43
2022/06/05 04:37:24;;;;;;;;;;;;;;;;;;5077767;28;19909;-44
2022/06/05 04:39:50;;;;;;;;;;;;;;;;;;5077451;28;19968;-44
2022/06/05 04:42:15;;;;;;;;;;;;;;;;;;5077529;28;19908;-44
2022/06/05 04:44:41;;;;;;;;;;;;;;;;;;5077671;28;19908;-43
2022/06/05 04:47:06;;;;;;;;;;;;;;;;;;5077588;28;19912;-43
2022/06/05 04:49:34;;;;;;;;;;;;;;;;;;5077532;28;19905;-44
2022/06/05 04:52:02;;;;;;;;;;;;;;;;;;5077427;28;19912;-44
2022/06/05 04:54:28;;;;;;;;;;;;;;;;;;5077443;28;19908;-43
2022/06/05 04:56:53;;;;;;;;;;;;;;;;;;5077359;28;19919;-43
2022/06/05 04:59:19;;;;;;;;;;;;;;;;;;5077254;28;19913;-44
2022/06/05 05:01:44;;;;;;;;;;;;;;;;;;5077282;28;20861;-43
2022/06/05 05:04:09;;;;;;;;;;;;;;;;;;5077196;28;19909;-44
2022/06/05 05:06:35;;;;;;;;;;;;;;;;;;5076982;28;19916;-43
2022/06/05 05:09:03;;;;;;;;;;;;;;;;;;5077170;28;19908;-44
2022/06/05 05:11:28;;;;;;;;;;;;;;;;;;5077357;28;19909;-43
2022/06/05 05:13:54;;;;;;;;;;;;;;;;;;5076901;28;19915;-44
2022/06/05 05:16:19;;;;;;;;;;;;;;;;;;5076935;28;19943;-43
2022/06/05 05:18:44;;;;;;;;;;;;;;;;;;5076987;28;19947;-43
2022/06/05 05:21:09;;;;;;;;;;;;;;;;;;5076919;28;19912;-44
2022/06/05 05:23:35;;;;;;;;;;;;;;;;;;5076902;28;19909;-44
2022/06/05 05:26:00;;;;;;;;;;;;;;;;;;5076959;28;19999;-44
2022/06/05 05:28:26;;;;;;;;;;;;;;;;;;5076521;28;19913;-43
2022/06/05 05:30:51;;;;;;;;;;;;;;;;;;5077050;28;20256;-43
2022/06/05 05:33:16;;;;;;;;;;;;;;;;;;5076655;28;19912;-43
2022/06/05 05:35:44;;;;;;;;;;;;;;;;;;5076515;28;19999;-44
2022/06/05 05:38:12;;;;;;;;;;;;;;;;;;5076547;28;19908;-43
2022/06/05 05:43:23;;;;;;;;;;;;;;;;;;5076463;28;19915;-44
2022/06/05 05:45:49;;;;;;;;;;;;;;;;;;5076396;28;19908;-43
2022/06/05 05:48:16;;;;;;;;;;;;;;;;;;5076238;28;19961;-44
2022/06/05 05:50:41;;;;;;;;;;;;;;;;;;5076447;28;19913;-44
2022/06/05 05:53:09;;;;;;;;;;;;;;;;;;5076356;28;20051;-43
2022/06/05 05:55:36;;;;;;;;;;;;;;;;;;5076210;28;20282;-43
2022/06/05 05:58:02;;;;;;;;;;;;;;;;;;5076306;28;19931;-44
2022/06/05 06:00:28;;;;;;;;;;;;;;;;;;5075946;28;19927;-43
2022/06/05 06:02:53;;;;;;;;;;;;;;;;;;5076180;28;20351;-43
2022/06/05 06:05:18;;;;;;;;;;;;;;;;;;5076011;28;20399;-45
2022/06/05 06:07:43;;;;;;;;;;;;;;;;;;5076087;28;19975;-43
2022/06/05 06:10:09;;;;;;;;;;;;;;;;;;5075952;28;20342;-44
2022/06/05 06:12:34;;;;;;;;;;;;;;;;;;5075978;28;19915;-44
2022/06/05 06:15:02;;;;;;;;;;;;;;;;;;5075940;28;19947;-43
2022/06/05 06:17:29;;;;;;;;;;;;;;;;;;5075808;28;19909;-43
2022/06/05 06:19:54;;;;;;;;;;;;;;;;;;5075889;28;19912;-44
2022/06/05 06:22:22;;;;;;;;;;;;;;;;;;5075833;28;19999;-44
2022/06/05 06:24:47;;;;;;;;;;;;;;;;;;5075763;28;20371;-44
2022/06/05 06:27:13;;;;;;;;;;;;;;;;;;5075463;28;19935;-43
2022/06/05 06:29:38;;;;;;;;;;;;;;;;;;5075557;28;19908;-45
2022/06/05 06:32:06;;;;;;;;;;;;;;;;;;5075426;28;19912;-43
2022/06/05 06:34:33;;;;;;;;;;;;;;;;;;5075453;28;19905;-44
2022/06/05 06:36:58;;;;;;;;;;;;;;;;;;5075440;28;19908;-44
2022/06/05 06:39:28;;;;;;;;;;;;;;;;;;5075062;28;19920;-44
2022/06/05 06:41:56;;;;;;;;;;;;;;;;;;5075294;28;19920;-44
2022/06/05 06:44:21;;;;;;;;;;;;;;;;;;5075170;28;19912;-44
2022/06/05 06:46:46;;;;;;;;;;;;;;;;;;5075052;28;20248;-44
2022/06/05 06:49:12;;;;;;;;;;;;;;;;;;5075099;28;19986;-45
2022/06/05 06:51:40;;;;;;;;;;;;;;;;;;5074510;28;19908;-44
2022/06/05 06:54:08;;;;;;;;;;;;;;;;;;5074894;28;19908;-44
2022/06/05 06:56:33;;;;;;;;;;;;;;;;;;5074939;28;20327;-45
2022/06/05 06:58:59;;;;;;;;;;;;;;;;;;5074968;28;19908;-44
2022/06/05 07:01:24;;;;;;;;;;;;;;;;;;5074829;28;20268;-45
2022/06/05 07:03:49;;;;;;;;;;;;;;;;;;5074871;28;19919;-45
2022/06/05 07:06:15;;;;;;;;;;;;;;;;;;5074721;28;19909;-43
2022/06/05 07:08:43;;;;;;;;;;;;;;;;;;5074877;28;19908;-44
2022/06/05 07:11:08;;;;;;;;;;;;;;;;;;5074814;28;19908;-44
2022/06/05 07:13:33;;;;;;;;;;;;;;;;;;5074877;28;20308;-44
2022/06/05 07:16:01;;;;;;;;;;;;;;;;;;5074803;28;19904;-44
2022/06/05 07:18:26;;;;;;;;;;;;;;;;;;5074653;28;19912;-44
2022/06/05 07:20:53;;;;;;;;;;;;;;;;;;5074561;28;19920;-44
2022/06/05 07:23:18;;;;;;;;;;;;;;;;;;5074655;28;20276;-44
2022/06/05 07:25:43;;;;;;;;;;;;;;;;;;5074547;28;19927;-45
2022/06/05 07:28:09;;;;;;;;;;;;;;;;;;5074550;28;20386;-44
2022/06/05 07:30:35;;;;;;;;;;;;;;;;;;5074338;28;19908;-44
2022/06/05 07:33:03;;;;;;;;;;;;;;;;;;5074549;28;19943;-44
2022/06/05 07:35:31;;;;;;;;;;;;;;;;;;5074508;28;19999;-41
2022/06/05 07:37:56;;;;;;;;;;;;;;;;;;5074538;28;20248;-45
2022/06/05 07:40:23;;;;;;;;;;;;;;;;;;5074106;28;19928;-44
2022/06/05 07:42:51;;;;;;;;;;;;;;;;;;5074477;28;19960;-44
2022/06/05 07:45:19;;;;;;;;;;;;;;;;;;5073004;28;20383;-44
2022/06/05 07:47:45;;;;;;;;;;;;;;;;;;5074358;28;20264;-44
2022/06/05 07:50:11;;;;;;;;;;;;;;;;;;5074293;28;20325;-45
2022/06/05 07:55:23;;;;;;;;;;;;;;;;;;5074345;28;19932;-46
2022/06/05 07:57:48;;;;;;;;;;;;;;;;;;5074334;28;19915;-44
2022/06/05 08:00:13;;;;;;;;;;;;;;;;;;5074459;28;20003;-44
2022/06/05 08:02:38;;;;;;;;;;;;;;;;;;5074366;28;20006;-43
2022/06/05 08:05:03;;;;;;;;;;;;;;;;;;5078041;28;19913;-44
2022/06/05 08:07:29;;;;;;;;;;;;;;;;;;5077551;28;19916;-43
2022/06/05 08:09:55;;;;;;;;;;;;;;;;;;5076362;28;19916;-42
2022/06/05 08:12:22;;;;;;;;;;;;;;;;;;5078322;28;19962;-46
2022/06/05 08:14:50;;;;;;;;;;;;;;;;;;5078112;28;19935;-45
2022/06/05 08:17:18;;;;;;;;;;;;;;;;;;5078087;28;19917;-45
2022/06/05 08:19:45;;;;;;;;;;;;;;;;;;5078351;28;19913;-44
2022/06/05 08:22:10;;;;;;;;;;;;;;;;;;5078048;28;19992;-44
2022/06/05 08:24:39;;;;;;;;;;;;;;;;;;5077793;28;19951;-44
2022/06/05 08:27:08;;;;;;;;;;;;;;;;;;5077835;28;19943;-43
2022/06/05 08:29:35;;;;;;;;;;;;;;;;;;5077946;28;19913;-43
2022/06/05 08:32:00;;;;;;;;;;;;;;;;;;5077778;28;19943;-43
2022/06/05 08:34:25;;;;;;;;;;;;;;;;;;5077718;28;19909;-43
2022/06/05 08:41:27;;;;;;;;;;;;;;;;;;5077607;28;19915;-44
2022/06/05 08:42:22;;;;;;;;;;;;;;;;;;5077657;28;19916;-44
2022/06/05 08:44:47;;;;;;;;;;;;;;;;;;5077494;28;19909;-44
2022/06/05 08:47:13;;;;;;;;;;;;;;;;;;5077560;28;19913;-45
2022/06/05 08:49:41;;;;;;;;;;;;;;;;;;5077471;28;19909;-44
2022/06/05 08:52:06;;;;;;;;;;;;;;;;;;5077273;28;19912;-44
2022/06/05 08:54:31;;;;;;;;;;;;;;;;;;5077329;28;19908;-44
2022/06/05 08:56:57;;;;;;;;;;;;;;;;;;5077346;28;19912;-43
2022/06/05 08:59:22;;;;;;;;;;;;;;;;;;5077250;28;20004;-44
2022/06/05 09:01:47;;;;;;;;;;;;;;;;;;5077028;28;19975;-43
2022/06/05 09:04:12;;;;;;;;;;;;;;;;;;5077132;28;19916;-43
2022/06/05 09:06:37;;;;;;;;;;;;;;;;;;5077271;28;19948;-44
2022/06/05 09:09:05;;;;;;;;;;;;;;;;;;5077074;28;19915;-43
2022/06/05 09:11:30;;;;;;;;;;;;;;;;;;5076976;28;19995;-43
2022/06/05 09:13:55;;;;;;;;;;;;;;;;;;5077042;28;20341;-45
2022/06/05 09:16:20;;;;;;;;;;;;;;;;;;5076126;28;19909;-45
2022/06/05 09:18:48;;;;;;;;;;;;;;;;;;5076927;28;19913;-43
2022/06/05 09:21:14;;;;;;;;;;;;;;;;;;5076835;28;19912;-44
2022/06/05 09:23:42;;;;;;;;;;;;;;;;;;5076855;28;20431;-44
2022/06/05 09:26:11;;;;;;;;;;;;;;;;;;5076803;28;19943;-44
2022/06/05 09:28:36;;;;;;;;;;;;;;;;;;5076763;28;19978;-44
2022/06/05 09:31:01;;;;;;;;;;;;;;;;;;5076704;28;19912;-44
2022/06/05 09:33:27;;;;;;;;;;;;;;;;;;5076617;28;19982;-44
2022/06/05 09:35:55;;;;;;;;;;;;;;;;;;5076379;28;19920;-43
2022/06/05 09:38:22;;;;;;;;;;;;;;;;;;5076569;28;19999;-44
2022/06/05 09:40:47;;;;;;;;;;;;;;;;;;5076140;28;19967;-44
2022/06/05 09:43:12;;;;;;;;;;;;;;;;;;5076472;28;19926;-45
2022/06/05 09:45:39;;;;;;;;;;;;;;;;;;5076359;28;19908;-45
2022/06/05 09:48:05;;;;;;;;;;;;;;;;;;5076358;28;19948;-43
2022/06/05 09:50:30;;;;;;;;;;;;;;;;;;5076259;28;19916;-43
2022/06/05 09:52:55;;;;;;;;;;;;;;;;;;5076230;28;19919;-44
2022/06/05 09:55:20;;;;;;;;;;;;;;;;;;5076380;28;19908;-43
2022/06/05 10:00:30;;;;;;;;;;;;;;;;;;5076142;28;19920;-46
2022/06/05 10:02:59;;;;;;;;;;;;;;;;;;5076070;28;20015;-44
2022/06/05 10:05:24;;;;;;;;;;;;;;;;;;5076046;28;19915;-43
2022/06/05 10:07:55;;;;;;;;;;;;;;;;;;5075803;28;20379;-43
2022/06/05 10:10:20;;;;;;;;;;;;;;;;;;5075920;28;19904;-43
2022/06/05 10:12:46;;;;;;;;;;;;;;;;;;5075808;28;19920;-43
2022/06/05 10:15:11;;;;;;;;;;;;;;;;;;5075788;28;19995;-43
2022/06/05 10:17:39;;;;;;;;;;;;;;;;;;5075826;28;19935;-43
2022/06/05 10:20:05;;;;;;;;;;;;;;;;;;5075703;28;19912;-43
2022/06/05 10:22:31;;;;;;;;;;;;;;;;;;5075622;28;19908;-43
2022/06/05 10:24:56;;;;;;;;;;;;;;;;;;5075668;28;19943;-43
2022/06/05 10:27:22;;;;;;;;;;;;;;;;;;5075449;28;20003;-44
2022/06/05 10:29:50;;;;;;;;;;;;;;;;;;5075612;28;20418;-43
2022/06/05 10:32:15;;;;;;;;;;;;;;;;;;5075532;28;20329;-42
2022/06/05 10:34:41;;;;;;;;;;;;;;;;;;5075491;28;19909;-43
2022/06/05 10:37:06;;;;;;;;;;;;;;;;;;5074021;28;20427;-45
2022/06/05 10:39:31;;;;;;;;;;;;;;;;;;5081942;22;20023;-43
2022/06/05 10:42:00;;;;;;;;;;;;;;;;;;5075333;28;19923;-44
2022/06/05 10:44:25;;;;;;;;;;;;;;;;;;5075245;28;20382;-43
2022/06/05 10:46:50;;;;;;;;;;;;;;;;;;5075109;28;19952;-43
2022/06/05 10:49:17;;;;;;;;;;;;;;;;;;5075249;28;20352;-45
2022/06/05 10:51:42;;;;;;;;;;;;;;;;;;5074136;28;20271;-44
2022/06/05 10:54:07;;;;;;;;;;;;;;;;;;5074951;28;19916;-44
2022/06/05 10:56:35;;;;;;;;;;;;;;;;;;5074963;28;19905;-44
2022/06/05 10:59:02;;;;;;;;;;;;;;;;;;5075128;28;20025;-43
2022/06/05 11:01:30;;;;;;;;;;;;;;;;;;5074795;28;19913;-44
2022/06/05 11:03:55;;;;;;;;;;;;;;;;;;5074971;28;19940;-44
2022/06/05 11:06:24;;;;;;;;;;;;;;;;;;5074923;28;20279;-43
2022/06/05 11:08:51;;;;;;;;;;;;;;;;;;5074876;28;19909;-44
2022/06/05 11:14:01;;;;;;;;;;;;;;;;;;5074773;28;19983;-44
2022/06/05 11:16:26;;;;;;;;;;;;;;;;;;5074728;28;19937;-44
2022/06/05 11:18:51;;;;;;;;;;;;;;;;;;5074570;28;19971;-45
2022/06/05 11:21:19;;;;;;;;;;;;;;;;;;5074592;28;19919;-44
2022/06/05 11:23:45;;;;;;;;;;;;;;;;;;5074813;28;19915;-45
2022/06/05 11:26:11;;;;;;;;;;;;;;;;;;5074608;28;19912;-45
2022/06/05 11:28:39;;;;;;;;;;;;;;;;;;5074608;28;20382;-46
2022/06/05 11:31:05;;;;;;;;;;;;;;;;;;5074588;28;19912;-45
2022/06/05 11:33:31;;;;;;;;;;;;;;;;;;5074549;28;19915;-44
2022/06/05 11:35:56;;;;;;;;;;;;;;;;;;5073270;28;19995;-45
2022/06/05 11:38:24;;;;;;;;;;;;;;;;;;5073995;28;19909;-45
2022/06/05 11:40:49;;;;;;;;;;;;;;;;;;5074274;28;19921;-44
2022/06/05 11:43:14;;;;;;;;;;;;;;;;;;5074411;28;19978;-44
2022/06/05 11:45:39;;;;;;;;;;;;;;;;;;5074374;28;19946;-46
2022/06/05 11:48:04;;;;;;;;;;;;;;;;;;5074600;28;19909;-45
2022/06/05 11:50:30;;;;;;;;;;;;;;;;;;5074379;28;19908;-45
2022/06/05 11:52:56;;;;;;;;;;;;;;;;;;5074429;28;19947;-45
2022/06/05 11:55:22;;;;;;;;;;;;;;;;;;5074361;28;20260;-46
2022/06/05 11:57:50;;;;;;;;;;;;;;;;;;5074244;28;20275;-44
2022/06/05 12:00:15;;;;;;;;;;;;;;;;;;5074187;28;19912;-43
2022/06/05 12:02:40;;;;;;;;;;;;;;;;;;5074266;28;19931;-44
2022/06/05 12:05:05;;;;;;;;;;;;;;;;;;5074197;28;19958;-43
2022/06/05 12:07:33;;;;;;;;;;;;;;;;;;5074359;28;19947;-44
2022/06/05 12:09:58;;;;;;;;;;;;;;;;;;5074187;28;19908;-44
2022/06/05 12:12:24;;;;;;;;;;;;;;;;;;5074110;28;19954;-44
2022/06/05 12:14:50;;;;;;;;;;;;;;;;;;5074100;28;20266;-44
2022/06/05 12:17:16;;;;;;;;;;;;;;;;;;5074114;28;20380;-43
2022/06/05 12:19:43;;;;;;;;;;;;;;;;;;5074010;28;20367;-43
2022/06/05 12:22:09;;;;;;;;;;;;;;;;;;5074063;28;19971;-43
2022/06/05 12:24:36;;;;;;;;;;;;;;;;;;5073973;28;20355;-44
2022/06/05 12:27:04;;;;;;;;;;;;;;;;;;5073348;28;19946;-44
2022/06/05 12:29:30;;;;;;;;;;;;;;;;;;5072839;28;19913;-43
2022/06/05 12:31:55;;;;;;;;;;;;;;;;;;5073953;28;19911;-45
2022/06/05 12:34:23;;;;;;;;;;;;;;;;;;5074030;28;19979;-43
2022/06/05 12:36:48;;;;;;;;;;;;;;;;;;5074090;28;19908;-43
2022/06/05 12:39:15;;;;;;;;;;;;;;;;;;5073552;28;19915;-43
2022/06/05 12:41:40;;;;;;;;;;;;;;;;;;5073860;28;19956;-44
2022/06/05 12:44:05;;;;;;;;;;;;;;;;;;5073739;28;19912;-43
2022/06/05 12:46:33;;;;;;;;;;;;;;;;;;5073661;28;19904;-43
2022/06/05 12:48:59;;;;;;;;;;;;;;;;;;5073645;28;19908;-44
2022/06/05 12:51:25;;;;;;;;;;;;;;;;;;5076179;28;20358;-44
2022/06/05 12:53:51;;;;;;;;;;;;;;;;;;5077367;28;19908;-43
2022/06/05 12:56:16;;;;;;;;;;;;;;;;;;5077326;28;19908;-43
2022/06/05 12:58:41;;;;;;;;;;;;;;;;;;5077271;28;19962;-44
2022/06/05 13:01:06;;;;;;;;;;;;;;;;;;5077086;28;19960;-43
2022/06/05 13:03:33;;;;;;;;;;;;;;;;;;5077300;28;19912;-44
2022/06/05 13:05:59;;;;;;;;;;;;;;;;;;5076156;28;19912;-44
2022/06/05 13:08:24;;;;;;;;;;;;;;;;;;5077079;28;19908;-43
2022/06/05 13:10:50;;;;;;;;;;;;;;;;;;5077021;28;19931;-43
2022/06/05 13:13:15;;;;;;;;;;;;;;;;;;5076932;28;19947;-43
2022/06/05 13:15:40;;;;;;;;;;;;;;;;;;5076994;28;19975;-43
2022/06/05 13:18:06;;;;;;;;;;;;;;;;;;5076733;28;19909;-44
2022/06/05 13:20:31;;;;;;;;;;;;;;;;;;5076802;28;19957;-46
2022/06/05 13:22:56;;;;;;;;;;;;;;;;;;5077101;28;19909;-43
2022/06/05 13:25:21;;;;;;;;;;;;;;;;;;5077329;28;20287;-44
2022/06/05 13:27:47;;;;;;;;;;;;;;;;;;5076784;28;19931;-46
2022/06/05 13:30:13;;;;;;;;;;;;;;;;;;5076485;28;20372;-44
2022/06/05 13:32:40;;;;;;;;;;;;;;;;;;5076655;28;19908;-43
2022/06/05 13:35:06;;;;;;;;;;;;;;;;;;5076685;28;20286;-44
2022/06/05 13:37:34;;;;;;;;;;;;;;;;;;5076745;28;19930;-44
2022/06/05 13:39:59;;;;;;;;;;;;;;;;;;5076545;28;20371;-43
2022/06/05 13:42:26;;;;;;;;;;;;;;;;;;5076811;28;19923;-43
2022/06/05 13:44:51;;;;;;;;;;;;;;;;;;5076680;28;19913;-44
2022/06/05 13:47:17;;;;;;;;;;;;;;;;;;5076843;28;19953;-43
2022/06/05 13:49:42;;;;;;;;;;;;;;;;;;5076473;28;20303;-44
2022/06/05 13:52:09;;;;;;;;;;;;;;;;;;5076727;28;19916;-43
2022/06/05 13:54:34;;;;;;;;;;;;;;;;;;5076304;28;19909;-44
2022/06/05 13:57:02;;;;;;;;;;;;;;;;;;5076624;28;19916;-44
2022/06/05 13:59:29;;;;;;;;;;;;;;;;;;5076394;28;19912;-44
2022/06/05 14:01:54;;;;;;;;;;;;;;;;;;5075999;28;19927;-44
2022/06/05 14:04:20;;;;;;;;;;;;;;;;;;5076354;28;20335;-47
2022/06/05 14:06:45;;;;;;;;;;;;;;;;;;5076377;28;19909;-48
2022/06/05 14:09:12;;;;;;;;;;;;;;;;;;5076490;28;20405;-44
2022/06/05 14:11:37;;;;;;;;;;;;;;;;;;5076362;28;19946;-44
2022/06/05 14:14:06;;;;;;;;;;;;;;;;;;5076201;28;20322;-44
2022/06/05 14:16:31;;;;;;;;;;;;;;;;;;5076405;28;20388;-44
2022/06/05 14:18:59;;;;;;;;;;;;;;;;;;5076039;28;19916;-44
2022/06/05 14:21:25;;;;;;;;;;;;;;;;;;5075926;28;19967;-44
2022/06/05 14:23:50;;;;;;;;;;;;;;;;;;5076148;28;19908;-44
2022/06/05 14:26:15;;;;;;;;;;;;;;;;;;5075973;28;19922;-45
2022/06/05 14:28:40;;;;;;;;;;;;;;;;;;5075900;28;19908;-44
2022/06/05 14:31:05;;;;;;;;;;;;;;;;;;5075404;28;19966;-44
2022/06/05 14:33:31;;;;;;;;;;;;;;;;;;5075566;28;20297;-44
2022/06/05 14:35:56;;;;;;;;;;;;;;;;;;5075361;28;19909;-45
2022/06/05 14:38:21;;;;;;;;;;;;;;;;;;5075304;28;19995;-43
2022/06/05 14:40:49;;;;;;;;;;;;;;;;;;5074308;28;19921;-44
2022/06/05 14:43:14;;;;;;;;;;;;;;;;;;5075310;28;19908;-43
2022/06/05 14:45:43;;;;;;;;;;;;;;;;;;5074931;28;19953;-44
2022/06/05 14:48:09;;;;;;;;;;;;;;;;;;5075025;28;19908;-44
2022/06/05 14:50:36;;;;;;;;;;;;;;;;;;5075111;28;20271;-44
2022/06/05 14:53:01;;;;;;;;;;;;;;;;;;5075113;28;20473;-44
2022/06/05 14:58:10;;;;;;;;;;;;;;;;;;5074937;28;19915;-45
2022/06/05 15:00:36;;;;;;;;;;;;;;;;;;5074952;28;19938;-43
2022/06/05 15:03:01;;;;;;;;;;;;;;;;;;5074956;28;19909;-44
2022/06/05 15:05:26;;;;;;;;;;;;;;;;;;5074822;28;19915;-44
2022/06/05 15:07:54;;;;;;;;;;;;;;;;;;5074734;28;19923;-43
2022/06/05 15:10:19;;;;;;;;;;;;;;;;;;5074787;28;19991;-43
2022/06/05 15:12:44;;;;;;;;;;;;;;;;;;5074210;28;19955;-43
2022/06/05 15:15:10;;;;;;;;;;;;;;;;;;5074599;28;19908;-44
2022/06/05 15:17:37;;;;;;;;;;;;;;;;;;5074636;28;19913;-44
2022/06/05 15:20:05;;;;;;;;;;;;;;;;;;5074610;28;20393;-43
2022/06/05 15:22:33;;;;;;;;;;;;;;;;;;5074659;28;19908;-44
2022/06/05 15:24:59;;;;;;;;;;;;;;;;;;5074549;28;19909;-43
2022/06/05 15:27:26;;;;;;;;;;;;;;;;;;5074526;28;19954;-45
2022/06/05 15:29:51;;;;;;;;;;;;;;;;;;5074478;28;20390;-44
2022/06/05 15:32:16;;;;;;;;;;;;;;;;;;5074425;28;19966;-43
2022/06/05 15:34:41;;;;;;;;;;;;;;;;;;5074458;28;19916;-43
2022/06/05 15:37:06;;;;;;;;;;;;;;;;;;5074412;28;19909;-43
2022/06/05 15:39:34;;;;;;;;;;;;;;;;;;5074122;28;20007;-44
2022/06/05 15:41:59;;;;;;;;;;;;;;;;;;5074378;28;19919;-45
2022/06/05 15:44:25;;;;;;;;;;;;;;;;;;5074335;28;20274;-44
2022/06/05 15:46:53;;;;;;;;;;;;;;;;;;5074354;28;19951;-43
2022/06/05 15:49:18;;;;;;;;;;;;;;;;;;5074343;28;20280;-46
2022/06/05 15:51:45;;;;;;;;;;;;;;;;;;5074317;28;19965;-43
2022/06/05 15:54:11;;;;;;;;;;;;;;;;;;5074367;28;19951;-43
2022/06/05 15:56:36;;;;;;;;;;;;;;;;;;5074293;28;19909;-43
2022/06/05 15:59:04;;;;;;;;;;;;;;;;;;5074268;28;19987;-43
2022/06/05 16:01:29;;;;;;;;;;;;;;;;;;5074184;28;19912;-43
2022/06/05 16:03:55;;;;;;;;;;;;;;;;;;5074165;28;20050;-43
2022/06/05 16:06:23;;;;;;;;;;;;;;;;;;5074244;28;19915;-45
2022/06/05 16:08:48;;;;;;;;;;;;;;;;;;5074116;28;19908;-44
2022/06/05 16:11:13;;;;;;;;;;;;;;;;;;5074330;28;19908;-43
2022/06/05 16:13:42;;;;;;;;;;;;;;;;;;5074099;28;19908;-44
2022/06/05 16:16:08;;;;;;;;;;;;;;;;;;5074127;28;20240;-44
2022/06/05 16:18:33;;;;;;;;;;;;;;;;;;5072873;28;19992;-44
2022/06/05 16:21:01;;;;;;;;;;;;;;;;;;5073996;28;20007;-43
2022/06/05 16:23:28;;;;;;;;;;;;;;;;;;5073997;28;19915;-43
2022/06/05 16:25:53;;;;;;;;;;;;;;;;;;5077098;28;19909;-43
2022/06/05 16:28:27;;;;;;;;;;;;;;;;;;5077803;28;19954;-43
2022/06/05 16:30:55;;;;;;;;;;;;;;;;;;5078146;28;19961;-44
2022/06/05 16:33:20;;;;;;;;;;;;;;;;;;5077799;28;19934;-45
2022/06/05 16:38:33;;;;;;;;;;;;;;;;;;5077699;28;19950;-43
2022/06/05 16:40:58;;;;;;;;;;;;;;;;;;5077199;28;20276;-44
2022/06/05 16:43:24;;;;;;;;;;;;;;;;;;5077576;28;19908;-44
2022/06/05 16:45:50;;;;;;;;;;;;;;;;;;5077543;28;20493;-43
2022/06/05 16:48:15;;;;;;;;;;;;;;;;;;5076357;28;19999;-43
2022/06/05 16:50:40;;;;;;;;;;;;;;;;;;5077243;28;19909;-44
2022/06/05 16:53:06;;;;;;;;;;;;;;;;;;5077301;28;19915;-43
2022/06/05 16:55:34;;;;;;;;;;;;;;;;;;5077336;28;19927;-43
2022/06/05 16:58:02;;;;;;;;;;;;;;;;;;5077338;28;20361;-43
2022/06/05 17:00:27;;;;;;;;;;;;;;;;;;5077154;28;19916;-43